sensor_id;sensor_type;location;lat;lon;timestamp;temperature;humidity
7970;DHT22;4030;52.362;9.206;2022-10-16T00:14:13;16.90;66.80
7970;DHT22;4030;52.362;9.206;2022-10-16T00:16:40;17.00;67.00
7970;DHT22;4030;52.362;9.206;2022-10-16T00:19:06;16.90;66.90
7970;DHT22;4030;52.362;9.206;2022-10-16T00:21:33;16.70;66.80
7970;DHT22;4030;52.362;9.206;2022-10-16T00:24:04;16.90;66.90
7970;DHT22;4030;52.362;9.206;2022-10-16T00:26:33;16.80;66.90
7970;DHT22;4030;52.362;9.206;2022-10-16T00:29:00;16.90;67.10
7970;DHT22;4030;52.362;9.206;2022-10-16T00:31:26;17.00;67.20
7970;DHT22;4030;52.362;9.206;2022-10-16T00:33:52;16.80;67.10
7970;DHT22;4030;52.362;9.206;2022-10-16T00:36:21;16.90;67.30
7970;DHT22;4030;52.362;9.206;2022-10-16T00:38:56;16.90;67.30
7970;DHT22;4030;52.362;9.206;2022-10-16T00:41:25;16.80;67.20
7970;DHT22;4030;52.362;9.206;2022-10-16T00:43:57;16.80;67.30
7970;DHT22;4030;52.362;9.206;2022-10-16T00:49:11;16.70;67.40
7970;DHT22;4030;52.362;9.206;2022-10-16T00:51:51;16.80;67.60
7970;DHT22;4030;52.362;9.206;2022-10-16T00:54:23;16.80;67.70
7970;DHT22;4030;52.362;9.206;2022-10-16T00:56:52;16.70;67.60
7970;DHT22;4030;52.362;9.206;2022-10-16T00:59:24;16.80;67.80
7970;DHT22;4030;52.362;9.206;2022-10-16T01:01:52;16.80;67.90
7970;DHT22;4030;52.362;9.206;2022-10-16T01:07:14;16.80;67.90
7970;DHT22;4030;52.362;9.206;2022-10-16T01:13:10;16.80;68.00
7970;DHT22;4030;52.362;9.206;2022-10-16T01:15:41;16.80;68.10
7970;DHT22;4030;52.362;9.206;2022-10-16T01:18:24;16.60;68.00
7970;DHT22;4030;52.362;9.206;2022-10-16T01:21:05;16.60;68.00
7970;DHT22;4030;52.362;9.206;2022-10-16T01:26:49;16.60;68.10
7970;DHT22;4030;52.362;9.206;2022-10-16T01:29:26;16.60;68.30
7970;DHT22;4030;52.362;9.206;2022-10-16T01:32:02;16.60;68.30
7970;DHT22;4030;52.362;9.206;2022-10-16T01:34:37;16.50;68.30
7970;DHT22;4030;52.362;9.206;2022-10-16T01:37:12;16.70;68.60
7970;DHT22;4030;52.362;9.206;2022-10-16T01:39:45;16.60;68.40
7970;DHT22;4030;52.362;9.206;2022-10-16T01:42:20;16.70;68.60
7970;DHT22;4030;52.362;9.206;2022-10-16T01:44:48;16.50;68.50
7970;DHT22;4030;52.362;9.206;2022-10-16T01:47:17;16.50;68.50
7970;DHT22;4030;52.362;9.206;2022-10-16T01:49:45;16.60;68.70
7970;DHT22;4030;52.362;9.206;2022-10-16T01:52:15;16.40;68.50
7970;DHT22;4030;52.362;9.206;2022-10-16T01:54:46;16.50;68.60
7970;DHT22;4030;52.362;9.206;2022-10-16T01:57:14;16.40;68.70
7970;DHT22;4030;52.362;9.206;2022-10-16T01:59:46;16.40;68.60
7970;DHT22;4030;52.362;9.206;2022-10-16T02:02:15;16.50;68.70
7970;DHT22;4030;52.362;9.206;2022-10-16T02:04:46;16.40;68.70
7970;DHT22;4030;52.362;9.206;2022-10-16T02:07:18;16.50;68.90
7970;DHT22;4030;52.362;9.206;2022-10-16T02:09:43;16.60;69.10
7970;DHT22;4030;52.362;9.206;2022-10-16T02:14:54;16.50;69.10
7970;DHT22;4030;52.362;9.206;2022-10-16T02:17:20;16.40;69.00
7970;DHT22;4030;52.362;9.206;2022-10-16T02:19:47;16.40;69.00
7970;DHT22;4030;52.362;9.206;2022-10-16T02:22:42;16.40;69.10
7970;DHT22;4030;52.362;9.206;2022-10-16T02:25:24;16.40;69.10
7970;DHT22;4030;52.362;9.206;2022-10-16T02:30:59;16.40;69.20
7970;DHT22;4030;52.362;9.206;2022-10-16T02:33:28;16.40;69.20
7970;DHT22;4030;52.362;9.206;2022-10-16T02:35:55;16.10;69.00
7970;DHT22;4030;52.362;9.206;2022-10-16T02:38:23;16.30;69.30
7970;DHT22;4030;52.362;9.206;2022-10-16T02:40:50;16.20;69.20
7970;DHT22;4030;52.362;9.206;2022-10-16T02:45:42;16.20;69.30
7970;DHT22;4030;52.362;9.206;2022-10-16T02:48:08;16.20;69.30
7970;DHT22;4030;52.362;9.206;2022-10-16T02:50:34;16.30;69.50
7970;DHT22;4030;52.362;9.206;2022-10-16T02:55:26;16.30;69.50
7970;DHT22;4030;52.362;9.206;2022-10-16T02:57:53;16.20;69.50
7970;DHT22;4030;52.362;9.206;2022-10-16T03:00:20;16.30;69.70
7970;DHT22;4030;52.362;9.206;2022-10-16T03:02:45;16.40;69.80
7970;DHT22;4030;52.362;9.206;2022-10-16T03:05:13;16.20;69.60
7970;DHT22;4030;52.362;9.206;2022-10-16T03:07:39;16.10;69.50
7970;DHT22;4030;52.362;9.206;2022-10-16T03:10:05;16.20;69.60
7970;DHT22;4030;52.362;9.206;2022-10-16T03:12:31;16.30;69.80
7970;DHT22;4030;52.362;9.206;2022-10-16T03:14:57;16.00;69.50
7970;DHT22;4030;52.362;9.206;2022-10-16T03:17:24;16.20;69.80
7970;DHT22;4030;52.362;9.206;2022-10-16T03:27:08;16.10;69.80
7970;DHT22;4030;52.362;9.206;2022-10-16T03:34:27;16.00;69.70
7970;DHT22;4030;52.362;9.206;2022-10-16T03:36:53;16.10;69.80
7970;DHT22;4030;52.362;9.206;2022-10-16T03:39:19;16.10;69.80
7970;DHT22;4030;52.362;9.206;2022-10-16T03:41:45;15.90;69.60
7970;DHT22;4030;52.362;9.206;2022-10-16T03:44:12;16.00;69.70
7970;DHT22;4030;52.362;9.206;2022-10-16T03:46:38;15.90;69.80
7970;DHT22;4030;52.362;9.206;2022-10-16T03:49:03;15.80;69.70
7970;DHT22;4030;52.362;9.206;2022-10-16T03:51:29;16.10;70.00
7970;DHT22;4030;52.362;9.206;2022-10-16T04:11:00;15.80;69.90
7970;DHT22;4030;52.362;9.206;2022-10-16T04:13:26;15.80;69.90
7970;DHT22;4030;52.362;9.206;2022-10-16T04:15:52;15.80;69.90
7970;DHT22;4030;52.362;9.206;2022-10-16T04:23:10;15.70;70.10
7970;DHT22;4030;52.362;9.206;2022-10-16T04:25:35;15.70;70.20
7970;DHT22;4030;52.362;9.206;2022-10-16T04:28:01;15.60;70.10
7970;DHT22;4030;52.362;9.206;2022-10-16T04:30:27;15.70;70.40
7970;DHT22;4030;52.362;9.206;2022-10-16T04:32:53;15.80;70.70
7970;DHT22;4030;52.362;9.206;2022-10-16T04:35:20;15.80;70.70
7970;DHT22;4030;52.362;9.206;2022-10-16T04:42:39;15.70;70.90
7970;DHT22;4030;52.362;9.206;2022-10-16T04:45:06;15.70;71.00
7970;DHT22;4030;52.362;9.206;2022-10-16T04:47:33;15.70;71.10
7970;DHT22;4030;52.362;9.206;2022-10-16T04:49:59;15.90;71.40
7970;DHT22;4030;52.362;9.206;2022-10-16T04:52:26;16.00;71.60
7970;DHT22;4030;52.362;9.206;2022-10-16T04:54:52;16.00;71.70
7970;DHT22;4030;52.362;9.206;2022-10-16T05:26:32;16.10;72.80
7970;DHT22;4030;52.362;9.206;2022-10-16T05:31:24;16.20;73.00
7970;DHT22;4030;52.362;9.206;2022-10-16T05:38:43;16.00;73.00
7970;DHT22;4030;52.362;9.206;2022-10-16T05:41:09;15.90;72.90
7970;DHT22;4030;52.362;9.206;2022-10-16T05:43:35;16.10;73.10
7970;DHT22;4030;52.362;9.206;2022-10-16T05:46:03;16.00;73.00
7970;DHT22;4030;52.362;9.206;2022-10-16T05:48:32;17.60;74.70
7970;DHT22;4030;52.362;9.206;2022-10-16T05:51:03;15.90;73.00
7970;DHT22;4030;52.362;9.206;2022-10-16T05:53:34;15.90;73.10
7970;DHT22;4030;52.362;9.206;2022-10-16T05:56:01;16.00;73.20
7970;DHT22;4030;52.362;9.206;2022-10-16T05:58:33;15.90;73.20
7970;DHT22;4030;52.362;9.206;2022-10-16T06:01:11;16.00;73.20
7970;DHT22;4030;52.362;9.206;2022-10-16T06:06:25;16.00;73.20
7970;DHT22;4030;52.362;9.206;2022-10-16T06:08:53;16.10;73.40
7970;DHT22;4030;52.362;9.206;2022-10-16T06:11:25;16.10;73.20
7970;DHT22;4030;52.362;9.206;2022-10-16T06:13:53;16.20;73.40
7970;DHT22;4030;52.362;9.206;2022-10-16T06:18:50;16.20;73.40
7970;DHT22;4030;52.362;9.206;2022-10-16T06:21:19;16.10;73.50
7970;DHT22;4030;52.362;9.206;2022-10-16T06:23:47;16.20;73.40
7970;DHT22;4030;52.362;9.206;2022-10-16T06:26:14;16.40;73.70
7970;DHT22;4030;52.362;9.206;2022-10-16T06:31:09;16.30;73.30
7970;DHT22;4030;52.362;9.206;2022-10-16T06:33:36;16.30;73.20
7970;DHT22;4030;52.362;9.206;2022-10-16T06:36:10;16.40;73.30
7970;DHT22;4030;52.362;9.206;2022-10-16T06:41:05;16.30;72.80
7970;DHT22;4030;52.362;9.206;2022-10-16T06:43:32;16.30;72.80
7970;DHT22;4030;52.362;9.206;2022-10-16T06:46:01;16.40;72.70
7970;DHT22;4030;52.362;9.206;2022-10-16T06:48:28;16.60;72.90
7970;DHT22;4030;52.362;9.206;2022-10-16T06:50:59;16.50;72.60
7970;DHT22;4030;52.362;9.206;2022-10-16T06:53:26;16.50;72.50
7970;DHT22;4030;52.362;9.206;2022-10-16T06:55:52;16.70;72.60
7970;DHT22;4030;52.362;9.206;2022-10-16T07:00:44;16.50;72.20
7970;DHT22;4030;52.362;9.206;2022-10-16T07:05:43;16.70;72.20
7970;DHT22;4030;52.362;9.206;2022-10-16T07:08:09;16.70;72.20
7970;DHT22;4030;52.362;9.206;2022-10-16T07:10:35;16.60;72.00
7970;DHT22;4030;52.362;9.206;2022-10-16T07:13:01;16.60;71.90
7970;DHT22;4030;52.362;9.206;2022-10-16T07:15:27;16.80;72.10
7970;DHT22;4030;52.362;9.206;2022-10-16T07:17:53;16.80;72.10
7970;DHT22;4030;52.362;9.206;2022-10-16T07:20:19;16.90;72.10
7970;DHT22;4030;52.362;9.206;2022-10-16T07:25:11;17.00;71.90
7970;DHT22;4030;52.362;9.206;2022-10-16T07:30:04;16.90;71.30
7970;DHT22;4030;52.362;9.206;2022-10-16T07:32:31;17.30;71.60
7970;DHT22;4030;52.362;9.206;2022-10-16T07:34:57;17.10;71.20
7970;DHT22;4030;52.362;9.206;2022-10-16T07:37:23;17.20;71.10
7970;DHT22;4030;52.362;9.206;2022-10-16T07:42:15;17.40;71.10
7970;DHT22;4030;52.362;9.206;2022-10-16T07:44:41;17.60;71.00
7970;DHT22;4030;52.362;9.206;2022-10-16T07:47:07;17.70;71.00
7970;DHT22;4030;52.362;9.206;2022-10-16T07:49:32;17.70;70.80
7970;DHT22;4030;52.362;9.206;2022-10-16T07:51:58;17.90;70.90
7970;DHT22;4030;52.362;9.206;2022-10-16T07:54:24;16.40;69.10
7970;DHT22;4030;52.362;9.206;2022-10-16T08:04:09;17.80;70.10
7970;DHT22;4030;52.362;9.206;2022-10-16T08:06:37;17.90;70.20
7970;DHT22;4030;52.362;9.206;2022-10-16T08:09:04;17.90;70.40
7970;DHT22;4030;52.362;9.206;2022-10-16T08:11:31;18.00;70.80
7970;DHT22;4030;52.362;9.206;2022-10-16T08:21:18;18.30;70.40
7970;DHT22;4030;52.362;9.206;2022-10-16T08:26:12;18.20;69.60
7970;DHT22;4030;52.362;9.206;2022-10-16T08:28:38;18.50;69.60
7970;DHT22;4030;52.362;9.206;2022-10-16T08:31:15;18.80;69.60
7970;DHT22;4030;52.362;9.206;2022-10-16T08:33:42;18.70;69.10
7970;DHT22;4030;52.362;9.206;2022-10-16T08:36:10;19.00;69.10
7970;DHT22;4030;52.362;9.206;2022-10-16T08:38:37;19.20;68.80
7970;DHT22;4030;52.362;9.206;2022-10-16T08:41:36;19.40;68.40
7970;DHT22;4030;52.362;9.206;2022-10-16T08:50:29;20.40;66.70
7970;DHT22;4030;52.362;9.206;2022-10-16T08:52:57;20.60;66.00
7970;DHT22;4030;52.362;9.206;2022-10-16T08:55:31;20.80;65.40
7970;DHT22;4030;52.362;9.206;2022-10-16T08:58:00;21.20;64.70
7970;DHT22;4030;52.362;9.206;2022-10-16T09:00:27;21.50;64.00
7970;DHT22;4030;52.362;9.206;2022-10-16T09:02:57;21.80;63.40
7970;DHT22;4030;52.362;9.206;2022-10-16T09:05:43;22.20;62.70
7970;DHT22;4030;52.362;9.206;2022-10-16T09:08:31;22.40;61.50
7970;DHT22;4030;52.362;9.206;2022-10-16T09:11:14;22.90;60.80
7970;DHT22;4030;52.362;9.206;2022-10-16T09:17:42;23.50;59.20
7970;DHT22;4030;52.362;9.206;2022-10-16T09:20:32;23.80;58.50
7970;DHT22;4030;52.362;9.206;2022-10-16T09:25:30;24.40;57.40
7970;DHT22;4030;52.362;9.206;2022-10-16T09:27:56;24.90;56.90
7970;DHT22;4030;52.362;9.206;2022-10-16T09:30:22;25.30;56.10
7970;DHT22;4030;52.362;9.206;2022-10-16T09:32:53;25.70;55.30
7970;DHT22;4030;52.362;9.206;2022-10-16T09:35:22;26.20;54.70
7970;DHT22;4030;52.362;9.206;2022-10-16T09:40:26;26.90;53.10
7970;DHT22;4030;52.362;9.206;2022-10-16T09:49:20;27.90;51.00
7970;DHT22;4030;52.362;9.206;2022-10-16T09:51:47;27.90;50.60
7970;DHT22;4030;52.362;9.206;2022-10-16T09:54:19;27.60;50.80
7970;DHT22;4030;52.362;9.206;2022-10-16T09:56:46;27.10;51.30
7970;DHT22;4030;52.362;9.206;2022-10-16T09:59:19;26.60;51.80
7970;DHT22;4030;52.362;9.206;2022-10-16T10:01:53;26.10;52.40
7970;DHT22;4030;52.362;9.206;2022-10-16T10:04:22;25.90;52.90
7970;DHT22;4030;52.362;9.206;2022-10-16T10:06:53;25.90;52.80
7970;DHT22;4030;52.362;9.206;2022-10-16T10:09:26;25.80;53.00
7970;DHT22;4030;52.362;9.206;2022-10-16T10:12:16;25.70;53.30
7970;DHT22;4030;52.362;9.206;2022-10-16T10:14:51;25.90;52.90
7970;DHT22;4030;52.362;9.206;2022-10-16T10:17:21;26.40;52.20
7970;DHT22;4030;52.362;9.206;2022-10-16T10:22:31;27.40;50.30
7970;DHT22;4030;52.362;9.206;2022-10-16T10:25:15;28.00;49.40
7970;DHT22;4030;52.362;9.206;2022-10-16T10:34:05;29.40;47.10
7970;DHT22;4030;52.362;9.206;2022-10-16T10:36:37;29.70;46.40
7970;DHT22;4030;52.362;9.206;2022-10-16T10:45:18;30.40;44.80
7970;DHT22;4030;52.362;9.206;2022-10-16T10:50:33;30.50;44.90
7970;DHT22;4030;52.362;9.206;2022-10-16T10:53:18;30.30;44.80
7970;DHT22;4030;52.362;9.206;2022-10-16T11:01:59;29.50;45.40
7970;DHT22;4030;52.362;9.206;2022-10-16T11:04:54;29.60;45.30
7970;DHT22;4030;52.362;9.206;2022-10-16T11:10:53;29.70;45.20
7970;DHT22;4030;52.362;9.206;2022-10-16T11:13:37;29.70;45.30
7970;DHT22;4030;52.362;9.206;2022-10-16T11:16:18;29.40;45.40
7970;DHT22;4030;52.362;9.206;2022-10-16T11:18:55;29.20;45.90
7970;DHT22;4030;52.362;9.206;2022-10-16T11:21:26;29.00;46.20
7970;DHT22;4030;52.362;9.206;2022-10-16T11:24:02;29.20;46.00
7970;DHT22;4030;52.362;9.206;2022-10-16T11:26:34;29.40;45.90
7970;DHT22;4030;52.362;9.206;2022-10-16T11:29:03;29.60;45.70
7970;DHT22;4030;52.362;9.206;2022-10-16T11:31:40;29.80;45.60
7970;DHT22;4030;52.362;9.206;2022-10-16T11:34:35;30.00;45.40
7970;DHT22;4030;52.362;9.206;2022-10-16T11:37:10;29.80;45.50
7970;DHT22;4030;52.362;9.206;2022-10-16T11:39:39;29.50;43.40
7970;DHT22;4030;52.362;9.206;2022-10-16T11:42:18;29.00;42.50
7970;DHT22;4030;52.362;9.206;2022-10-16T11:47:36;28.90;45.30
7970;DHT22;4030;52.362;9.206;2022-10-16T11:56:38;28.50;41.90
7970;DHT22;4030;52.362;9.206;2022-10-16T12:01:56;28.30;43.90
7970;DHT22;4030;52.362;9.206;2022-10-16T12:04:50;28.40;44.20
7970;DHT22;4030;52.362;9.206;2022-10-16T12:07:27;28.60;44.20
7970;DHT22;4030;52.362;9.206;2022-10-16T12:10:30;28.70;44.50
7970;DHT22;4030;52.362;9.206;2022-10-16T12:15:33;29.00;44.60
7970;DHT22;4030;52.362;9.206;2022-10-16T12:17:59;29.20;45.00
7970;DHT22;4030;52.362;9.206;2022-10-16T12:20:28;29.10;44.50
7970;DHT22;4030;52.362;9.206;2022-10-16T12:23:06;29.10;44.70
7970;DHT22;4030;52.362;9.206;2022-10-16T12:25:40;28.90;45.30
7970;DHT22;4030;52.362;9.206;2022-10-16T12:28:25;28.90;45.00
7970;DHT22;4030;52.362;9.206;2022-10-16T12:31:04;28.70;43.80
7970;DHT22;4030;52.362;9.206;2022-10-16T12:33:39;28.40;42.60
7970;DHT22;4030;52.362;9.206;2022-10-16T12:36:15;28.30;43.00
7970;DHT22;4030;52.362;9.206;2022-10-16T12:38:52;28.20;43.00
7970;DHT22;4030;52.362;9.206;2022-10-16T12:41:33;28.10;43.10
7970;DHT22;4030;52.362;9.206;2022-10-16T12:44:00;28.00;42.80
7970;DHT22;4030;52.362;9.206;2022-10-16T12:49:22;27.90;42.10
7970;DHT22;4030;52.362;9.206;2022-10-16T12:51:55;27.70;41.40
7970;DHT22;4030;52.362;9.206;2022-10-16T12:54:35;27.50;41.30
7970;DHT22;4030;52.362;9.206;2022-10-16T13:00:32;27.10;41.60
7970;DHT22;4030;52.362;9.206;2022-10-16T13:26:17;28.30;41.20
7970;DHT22;4030;52.362;9.206;2022-10-16T13:28:49;28.60;40.80
7970;DHT22;4030;52.362;9.206;2022-10-16T13:31:19;28.60;40.80
7970;DHT22;4030;52.362;9.206;2022-10-16T13:33:51;28.60;41.10
7970;DHT22;4030;52.362;9.206;2022-10-16T13:36:44;28.70;41.70
7970;DHT22;4030;52.362;9.206;2022-10-16T13:39:14;28.90;41.90
7970;DHT22;4030;52.362;9.206;2022-10-16T13:41:44;29.10;41.70
7970;DHT22;4030;52.362;9.206;2022-10-16T13:44:17;29.40;41.50
7970;DHT22;4030;52.362;9.206;2022-10-16T13:46:44;29.70;40.90
7970;DHT22;4030;52.362;9.206;2022-10-16T13:49:16;29.50;41.30
7970;DHT22;4030;52.362;9.206;2022-10-16T13:51:54;29.40;41.80
7970;DHT22;4030;52.362;9.206;2022-10-16T13:54:26;29.20;42.00
7970;DHT22;4030;52.362;9.206;2022-10-16T13:56:53;29.10;42.30
7970;DHT22;4030;52.362;9.206;2022-10-16T13:59:25;29.00;42.50
7970;DHT22;4030;52.362;9.206;2022-10-16T14:02:10;29.10;42.80
7970;DHT22;4030;52.362;9.206;2022-10-16T14:04:43;29.10;43.30
7970;DHT22;4030;52.362;9.206;2022-10-16T14:07:22;29.10;43.30
7970;DHT22;4030;52.362;9.206;2022-10-16T14:09:53;29.00;43.60
7970;DHT22;4030;52.362;9.206;2022-10-16T14:12:20;28.80;43.20
7970;DHT22;4030;52.362;9.206;2022-10-16T14:14:49;28.70;43.20
7970;DHT22;4030;52.362;9.206;2022-10-16T14:17:23;28.50;43.30
7970;DHT22;4030;52.362;9.206;2022-10-16T14:19:54;28.40;43.80
7970;DHT22;4030;52.362;9.206;2022-10-16T14:22:33;28.20;43.90
7970;DHT22;4030;52.362;9.206;2022-10-16T14:25:02;28.10;44.40
7970;DHT22;4030;52.362;9.206;2022-10-16T14:27:41;27.90;44.20
7970;DHT22;4030;52.362;9.206;2022-10-16T14:30:18;27.80;44.40
7970;DHT22;4030;52.362;9.206;2022-10-16T14:32:55;27.70;44.10
7970;DHT22;4030;52.362;9.206;2022-10-16T14:35:37;27.60;44.00
7970;DHT22;4030;52.362;9.206;2022-10-16T14:38:06;27.40;43.90
7970;DHT22;4030;52.362;9.206;2022-10-16T14:40:47;27.40;44.20
7970;DHT22;4030;52.362;9.206;2022-10-16T14:43:22;27.30;44.80
7970;DHT22;4030;52.362;9.206;2022-10-16T14:45:55;27.20;45.00
7970;DHT22;4030;52.362;9.206;2022-10-16T14:48:22;27.10;45.00
7970;DHT22;4030;52.362;9.206;2022-10-16T14:50:48;27.00;45.00
7970;DHT22;4030;52.362;9.206;2022-10-16T14:53:14;26.80;45.20
7970;DHT22;4030;52.362;9.206;2022-10-16T14:55:41;26.70;45.10
7970;DHT22;4030;52.362;9.206;2022-10-16T14:58:21;26.60;45.60
7970;DHT22;4030;52.362;9.206;2022-10-16T15:00:48;26.40;45.60
7970;DHT22;4030;52.362;9.206;2022-10-16T15:03:14;26.40;45.90
7970;DHT22;4030;52.362;9.206;2022-10-16T15:08:06;26.20;46.30
7970;DHT22;4030;52.362;9.206;2022-10-16T15:10:38;26.10;46.40
7970;DHT22;4030;52.362;9.206;2022-10-16T15:15:44;25.80;46.60
7970;DHT22;4030;52.362;9.206;2022-10-16T15:18:10;25.60;46.70
7970;DHT22;4030;52.362;9.206;2022-10-16T15:20:37;25.70;47.20
7970;DHT22;4030;52.362;9.206;2022-10-16T15:23:09;25.50;47.30
7970;DHT22;4030;52.362;9.206;2022-10-16T15:25:45;25.40;47.20
7970;DHT22;4030;52.362;9.206;2022-10-16T15:28:13;25.30;47.70
7970;DHT22;4030;52.362;9.206;2022-10-16T15:33:13;25.00;48.20
7970;DHT22;4030;52.362;9.206;2022-10-16T15:35:51;24.90;48.60
7970;DHT22;4030;52.362;9.206;2022-10-16T15:38:19;24.80;48.90
7970;DHT22;4030;52.362;9.206;2022-10-16T15:40:46;24.60;49.00
7970;DHT22;4030;52.362;9.206;2022-10-16T15:43:13;24.50;49.10
7970;DHT22;4030;52.362;9.206;2022-10-16T15:45:39;24.40;49.30
7970;DHT22;4030;52.362;9.206;2022-10-16T15:48:05;24.30;49.50
7970;DHT22;4030;52.362;9.206;2022-10-16T15:50:32;24.20;49.70
7970;DHT22;4030;52.362;9.206;2022-10-16T15:52:58;24.10;49.60
7970;DHT22;4030;52.362;9.206;2022-10-16T15:55:23;23.90;49.70
7970;DHT22;4030;52.362;9.206;2022-10-16T15:57:49;23.80;50.10
7970;DHT22;4030;52.362;9.206;2022-10-16T16:00:18;23.70;50.40
7970;DHT22;4030;52.362;9.206;2022-10-16T16:02:52;23.60;50.60
7970;DHT22;4030;52.362;9.206;2022-10-16T16:05:19;23.50;50.80
7970;DHT22;4030;52.362;9.206;2022-10-16T16:10:12;23.30;50.90
7970;DHT22;4030;52.362;9.206;2022-10-16T16:12:38;23.20;51.00
7970;DHT22;4030;52.362;9.206;2022-10-16T16:15:06;23.10;51.20
7970;DHT22;4030;52.362;9.206;2022-10-16T16:17:33;23.00;51.40
7970;DHT22;4030;52.362;9.206;2022-10-16T16:20:00;22.90;51.50
7970;DHT22;4030;52.362;9.206;2022-10-16T16:22:26;24.60;53.10
7970;DHT22;4030;52.362;9.206;2022-10-16T16:29:45;22.60;52.20
7970;DHT22;4030;52.362;9.206;2022-10-16T16:32:11;22.50;52.20
7970;DHT22;4030;52.362;9.206;2022-10-16T16:34:37;22.40;52.30
7970;DHT22;4030;52.362;9.206;2022-10-16T16:37:03;22.40;52.60
7970;DHT22;4030;52.362;9.206;2022-10-16T16:41:56;22.20;52.80
7970;DHT22;4030;52.362;9.206;2022-10-16T16:44:24;22.00;52.80
7970;DHT22;4030;52.362;9.206;2022-10-16T16:46:50;22.10;53.10
7970;DHT22;4030;52.362;9.206;2022-10-16T16:54:10;21.90;53.50
7970;DHT22;4030;52.362;9.206;2022-10-16T16:56:37;21.80;53.60
7970;DHT22;4030;52.362;9.206;2022-10-16T17:01:29;21.70;53.80
7970;DHT22;4030;52.362;9.206;2022-10-16T17:03:57;21.60;53.80
7970;DHT22;4030;52.362;9.206;2022-10-16T17:06:28;21.60;53.80
7970;DHT22;4030;52.362;9.206;2022-10-16T17:08:58;21.50;54.00
7970;DHT22;4030;52.362;9.206;2022-10-16T17:11:28;21.50;54.20
7970;DHT22;4030;52.362;9.206;2022-10-16T17:13:55;21.50;54.30
7970;DHT22;4030;52.362;9.206;2022-10-16T17:16:25;21.40;54.30
7970;DHT22;4030;52.362;9.206;2022-10-16T17:18:59;21.30;54.40
7970;DHT22;4030;52.362;9.206;2022-10-16T17:23:58;21.30;54.60
7970;DHT22;4030;52.362;9.206;2022-10-16T17:28:53;21.20;54.60
7970;DHT22;4030;52.362;9.206;2022-10-16T17:31:23;21.10;54.60
7970;DHT22;4030;52.362;9.206;2022-10-16T17:33:50;21.10;54.70
7970;DHT22;4030;52.362;9.206;2022-10-16T17:36:16;21.00;54.60
7970;DHT22;4030;52.362;9.206;2022-10-16T17:38:43;21.10;54.80
7970;DHT22;4030;52.362;9.206;2022-10-16T17:41:18;21.00;54.80
7970;DHT22;4030;52.362;9.206;2022-10-16T17:43:46;21.00;54.90
7970;DHT22;4030;52.362;9.206;2022-10-16T17:46:13;20.90;54.90
7970;DHT22;4030;52.362;9.206;2022-10-16T17:48:44;20.90;55.00
7970;DHT22;4030;52.362;9.206;2022-10-16T17:51:14;20.90;55.10
7970;DHT22;4030;52.362;9.206;2022-10-16T17:53:41;20.70;55.10
7970;DHT22;4030;52.362;9.206;2022-10-16T17:56:12;20.80;55.30
7970;DHT22;4030;52.362;9.206;2022-10-16T17:58:39;20.80;55.30
7970;DHT22;4030;52.362;9.206;2022-10-16T18:01:17;20.70;55.40
7970;DHT22;4030;52.362;9.206;2022-10-16T18:03:56;20.60;55.40
7970;DHT22;4030;52.362;9.206;2022-10-16T18:06:24;20.60;55.50
7970;DHT22;4030;52.362;9.206;2022-10-16T18:08:51;20.60;55.60
7970;DHT22;4030;52.362;9.206;2022-10-16T18:11:18;20.60;56.00
7970;DHT22;4030;52.362;9.206;2022-10-16T18:13:44;20.50;56.20
7970;DHT22;4030;52.362;9.206;2022-10-16T18:16:12;20.50;56.20
7970;DHT22;4030;52.362;9.206;2022-10-16T18:18:41;20.50;56.40
7970;DHT22;4030;52.362;9.206;2022-10-16T18:21:11;20.50;56.50
7970;DHT22;4030;52.362;9.206;2022-10-16T18:23:39;20.40;56.50
7970;DHT22;4030;52.362;9.206;2022-10-16T18:26:05;20.30;56.50
7970;DHT22;4030;52.362;9.206;2022-10-16T18:28:32;20.40;56.70
7970;DHT22;4030;52.362;9.206;2022-10-16T18:31:00;20.30;56.60
7970;DHT22;4030;52.362;9.206;2022-10-16T18:33:29;20.20;56.60
7970;DHT22;4030;52.362;9.206;2022-10-16T18:35:59;20.30;56.70
7970;DHT22;4030;52.362;9.206;2022-10-16T18:38:26;20.20;56.80
7970;DHT22;4030;52.362;9.206;2022-10-16T18:45:58;20.10;56.90
7970;DHT22;4030;52.362;9.206;2022-10-16T18:48:31;20.00;56.90
7970;DHT22;4030;52.362;9.206;2022-10-16T18:51:10;19.90;56.80
7970;DHT22;4030;52.362;9.206;2022-10-16T18:53:40;19.90;56.90
7970;DHT22;4030;52.362;9.206;2022-10-16T18:56:07;20.10;57.10
7970;DHT22;4030;52.362;9.206;2022-10-16T18:58:34;20.00;57.10
7970;DHT22;4030;52.362;9.206;2022-10-16T19:01:05;19.90;57.10
7970;DHT22;4030;52.362;9.206;2022-10-16T19:03:31;19.90;57.10
7970;DHT22;4030;52.362;9.206;2022-10-16T19:06:16;19.90;57.20
7970;DHT22;4030;52.362;9.206;2022-10-16T19:08:42;19.90;57.30
7970;DHT22;4030;52.362;9.206;2022-10-16T19:11:14;19.80;57.20
7970;DHT22;4030;52.362;9.206;2022-10-16T19:13:42;19.80;57.30
7970;DHT22;4030;52.362;9.206;2022-10-16T19:16:17;19.80;57.30
7970;DHT22;4030;52.362;9.206;2022-10-16T19:21:12;19.70;57.40
7970;DHT22;4030;52.362;9.206;2022-10-16T19:23:39;19.70;57.50
7970;DHT22;4030;52.362;9.206;2022-10-16T19:26:07;19.60;57.40
7970;DHT22;4030;52.362;9.206;2022-10-16T19:31:04;19.70;57.60
7970;DHT22;4030;52.362;9.206;2022-10-16T19:33:33;19.60;57.60
7970;DHT22;4030;52.362;9.206;2022-10-16T19:36:21;19.60;57.60
7970;DHT22;4030;52.362;9.206;2022-10-16T19:38:53;19.60;57.70
7970;DHT22;4030;52.362;9.206;2022-10-16T19:41:20;19.50;57.70
7970;DHT22;4030;52.362;9.206;2022-10-16T19:43:47;19.50;57.70
7970;DHT22;4030;52.362;9.206;2022-10-16T19:46:20;19.40;57.70
7970;DHT22;4030;52.362;9.206;2022-10-16T19:48:48;19.50;57.80
7970;DHT22;4030;52.362;9.206;2022-10-16T19:51:18;19.40;57.80
7970;DHT22;4030;52.362;9.206;2022-10-16T19:53:45;19.40;57.90
7970;DHT22;4030;52.362;9.206;2022-10-16T19:56:13;19.30;57.90
7970;DHT22;4030;52.362;9.206;2022-10-16T19:58:40;19.30;57.90
7970;DHT22;4030;52.362;9.206;2022-10-16T20:01:07;19.40;58.10
7970;DHT22;4030;52.362;9.206;2022-10-16T20:03:32;19.40;58.20
7970;DHT22;4030;52.362;9.206;2022-10-16T20:06:00;19.30;58.10
7970;DHT22;4030;52.362;9.206;2022-10-16T20:08:31;19.30;58.20
7970;DHT22;4030;52.362;9.206;2022-10-16T20:10:57;19.20;58.20
7970;DHT22;4030;52.362;9.206;2022-10-16T20:13:23;19.20;58.30
7970;DHT22;4030;52.362;9.206;2022-10-16T20:15:49;19.20;58.30
7970;DHT22;4030;52.362;9.206;2022-10-16T20:18:15;19.20;58.40
7970;DHT22;4030;52.362;9.206;2022-10-16T20:20:44;19.20;58.40
7970;DHT22;4030;52.362;9.206;2022-10-16T20:25:40;19.10;58.40
7970;DHT22;4030;52.362;9.206;2022-10-16T20:28:10;19.10;58.40
7970;DHT22;4030;52.362;9.206;2022-10-16T20:30:39;19.10;58.50
7970;DHT22;4030;52.362;9.206;2022-10-16T20:33:07;19.20;58.70
7970;DHT22;4030;52.362;9.206;2022-10-16T20:35:40;19.10;58.70
7970;DHT22;4030;52.362;9.206;2022-10-16T20:38:08;19.00;58.70
7970;DHT22;4030;52.362;9.206;2022-10-16T20:40:41;19.00;58.70
7970;DHT22;4030;52.362;9.206;2022-10-16T20:43:16;19.00;58.70
7970;DHT22;4030;52.362;9.206;2022-10-16T20:45:43;19.00;58.80
7970;DHT22;4030;52.362;9.206;2022-10-16T20:48:10;19.00;58.90
7970;DHT22;4030;52.362;9.206;2022-10-16T20:50:38;19.00;59.00
7970;DHT22;4030;52.362;9.206;2022-10-16T20:53:05;19.00;59.00
7970;DHT22;4030;52.362;9.206;2022-10-16T20:55:36;19.00;59.10
7970;DHT22;4030;52.362;9.206;2022-10-16T20:58:03;19.00;59.00
7970;DHT22;4030;52.362;9.206;2022-10-16T21:00:30;18.90;59.00
7970;DHT22;4030;52.362;9.206;2022-10-16T21:05:22;18.90;59.10
7970;DHT22;4030;52.362;9.206;2022-10-16T21:15:06;18.80;59.10
7970;DHT22;4030;52.362;9.206;2022-10-16T21:17:32;18.80;59.20